Time;durP1;ratioP1;P1;durP2;ratioP2;P2;SDS_P1;SDS_P2;PMS_P1;PMS_P2;Temp;Humidity;BMP_temperature;BMP_pressure;BME280_temperature;BME280_humidity;BME280_pressure;Samples;Min_cycle;Max_cycle;Signal;HPM_P1;HPM_P2
2022/10/07 00:00:41;;;;;;;;;;;;;;;9.70;94.34;102838.28;5031624;28;19920;-69
2022/10/07 00:03:07;;;;;;;;;;;;;;;9.72;94.29;102828.94;5026566;28;19917;-70
2022/10/07 00:05:33;;;;;;;;;;;;;;;9.80;93.73;102829.09;5013492;28;19917;-70
2022/10/07 00:07:58;;;;;;;;;;;;;;;9.88;93.70;102825.63;5031399;28;19971;-71
2022/10/07 00:10:24;;;;;;;;;;;;;;;9.89;93.46;102824.63;5031644;28;20257;-69
2022/10/07 00:12:49;;;;;;;;;;;;;;;9.84;94.02;102824.19;5030755;28;20433;-70
2022/10/07 00:15:14;;;;;;;;;;;;;;;9.70;93.58;102805.44;5012294;28;19966;-69
2022/10/07 00:17:40;;;;;;;;;;;;;;;9.74;93.96;102804.16;5007566;28;19939;-69
2022/10/07 00:20:05;;;;;;;;;;;;;;;9.81;94.02;102802.56;5027521;28;20280;-69
2022/10/07 00:22:30;;;;;;;;;;;;;;;9.76;94.46;102816.69;5030111;28;20410;-69
2022/10/07 00:24:56;;;;;;;;;;;;;;;9.72;94.52;102804.31;5030128;28;19920;-70
2022/10/07 00:27:21;;;;;;;;;;;;;;;9.61;94.83;102801.72;5031189;28;19917;-71
2022/10/07 00:29:46;;;;;;;;;;;;;;;9.55;94.87;102801.44;5019460;28;19927;-69
2022/10/07 00:32:11;;;;;;;;;;;;;;;9.48;94.54;102808.47;5027255;28;19925;-70
2022/10/07 00:34:36;;;;;;;;;;;;;;;9.50;94.94;102809.22;5030233;28;19970;-70
2022/10/07 00:37:01;;;;;;;;;;;;;;;9.50;94.93;102811.94;5021024;28;19913;-71
2022/10/07 00:39:27;;;;;;;;;;;;;;;9.39;95.22;102812.91;5011714;28;20336;-70
2022/10/07 00:41:52;;;;;;;;;;;;;;;9.28;94.90;102810.31;5034560;28;19920;-69
2022/10/07 00:44:35;;;;;;;;;;;;;;;9.20;95.37;102803.81;5031307;28;20019;-69
2022/10/07 00:47:11;;;;;;;;;;;;;;;9.13;95.29;102808.13;5030943;28;19917;-70
2022/10/07 00:49:39;;;;;;;;;;;;;;;9.01;95.56;102796.44;5028615;28;19927;-70
2022/10/07 00:52:04;;;;;;;;;;;;;;;8.95;96.52;102796.13;5021792;28;19967;-70
2022/10/07 00:54:30;;;;;;;;;;;;;;;8.89;96.38;102793.94;5027826;28;20012;-70
2022/10/07 00:56:57;;;;;;;;;;;;;;;8.81;96.01;102796.53;5030981;28;19913;-70
2022/10/07 00:59:23;;;;;;;;;;;;;;;8.74;96.42;102790.75;5008997;28;20004;-70
2022/10/07 01:01:49;;;;;;;;;;;;;;;8.70;97.04;102786.53;5025657;28;20475;-69
2022/10/07 01:04:14;;;;;;;;;;;;;;;8.67;96.62;102784.09;5026257;28;19924;-69
2022/10/07 01:06:40;;;;;;;;;;;;;;;8.61;97.16;102779.19;5030413;28;19921;-69
2022/10/07 01:09:06;;;;;;;;;;;;;;;8.61;97.23;102783.78;5025532;28;19921;-69
2022/10/07 01:12:09;;;;;;;;;;;;;;;8.52;97.56;102776.41;5021326;28;19920;-71
2022/10/07 01:14:45;;;;;;;;;;;;;;;8.49;97.33;102768.50;4925327;29;19925;-70
2022/10/07 01:17:21;;;;;;;;;;;;;;;8.45;97.30;102769.75;4925963;29;19969;-70
2022/10/07 01:19:50;;;;;;;;;;;;;;;8.49;98.02;102763.03;4963955;28;19971;-69
2022/10/07 01:22:33;;;;;;;;;;;;;;;8.46;98.02;102761.44;5024236;28;19996;-69
2022/10/07 01:24:58;;;;;;;;;;;;;;;8.71;97.91;102760.94;5027186;28;19925;-71
2022/10/07 01:27:26;;;;;;;;;;;;;;;8.79;98.32;102752.94;5028945;28;20003;-69
2022/10/07 01:29:55;;;;;;;;;;;;;;;8.88;97.89;102752.13;5029102;28;19936;-70
2022/10/07 01:32:23;;;;;;;;;;;;;;;8.82;97.42;102749.06;5011003;28;20019;-71
2022/10/07 01:34:50;;;;;;;;;;;;;;;8.77;98.16;102741.31;5028057;28;19916;-69
2022/10/07 01:39:52;;;;;;;;;;;;;;;9.03;98.85;102728.81;5278032;22;19922;-73
2022/10/07 01:42:18;;;;;;;;;;;;;;;9.20;98.79;102728.16;5004313;28;19917;-71
2022/10/07 01:44:46;;;;;;;;;;;;;;;9.27;98.26;102728.41;5008543;28;19925;-72
2022/10/07 01:47:11;;;;;;;;;;;;;;;9.26;98.29;102718.50;5009255;28;20035;-72
2022/10/07 01:49:36;;;;;;;;;;;;;;;9.29;98.31;102712.75;5008550;28;20051;-71
2022/10/07 01:52:08;;;;;;;;;;;;;;;9.24;98.17;102712.31;4991290;28;19974;-71
2022/10/07 01:54:48;;;;;;;;;;;;;;;9.32;98.36;102713.31;5010170;28;20045;-72
2022/10/07 01:57:34;;;;;;;;;;;;;;;9.34;97.82;102700.34;5007272;28;19968;-72
2022/10/07 01:59:59;;;;;;;;;;;;;;;9.33;98.13;102704.09;5009176;28;19918;-72
2022/10/07 02:02:38;;;;;;;;;;;;;;;9.47;98.38;102690.00;5009543;28;19917;-72
2022/10/07 02:05:22;;;;;;;;;;;;;;;9.51;98.35;102691.41;5008191;28;19917;-72
2022/10/07 02:08:14;;;;;;;;;;;;;;;9.52;98.25;102686.81;5007672;28;19979;-72
2022/10/07 02:10:39;;;;;;;;;;;;;;;9.60;97.89;102687.81;4995592;28;19925;-72
2022/10/07 02:13:14;;;;;;;;;;;;;;;9.66;97.70;102686.38;5008916;28;19917;-72
2022/10/07 02:15:43;;;;;;;;;;;;;;;9.67;97.17;102683.47;5008732;28;20012;-71
2022/10/07 02:18:12;;;;;;;;;;;;;;;9.57;97.31;102673.56;5004708;28;20028;-71
2022/10/07 02:20:38;;;;;;;;;;;;;;;9.56;97.65;102672.69;4991520;28;20288;-72
2022/10/07 02:23:06;;;;;;;;;;;;;;;9.61;97.83;102661.34;4989405;28;19926;-72
2022/10/07 02:25:34;;;;;;;;;;;;;;;9.50;97.21;102665.06;5008936;28;19925;-72
2022/10/07 02:28:02;;;;;;;;;;;;;;;9.41;98.35;102655.03;5008345;28;19921;-72
2022/10/07 02:30:27;;;;;;;;;;;;;;;9.38;98.03;102647.09;4992424;28;19925;-73
2022/10/07 02:32:54;;;;;;;;;;;;;;;9.34;98.17;102645.66;4990458;28;19921;-72
2022/10/07 02:35:24;;;;;;;;;;;;;;;9.31;98.29;102645.09;4980294;28;19917;-72
2022/10/07 02:37:50;;;;;;;;;;;;;;;9.36;98.31;102642.78;5008583;28;19913;-71
2022/10/07 02:40:15;;;;;;;;;;;;;;;9.32;98.43;102639.50;4989580;28;20298;-72
2022/10/07 02:42:52;;;;;;;;;;;;;;;9.26;98.24;102636.47;5004333;28;19925;-72
2022/10/07 02:45:17;;;;;;;;;;;;;;;9.29;98.97;102625.25;4990724;28;20171;-72
2022/10/07 02:47:52;;;;;;;;;;;;;;;9.30;98.39;102624.22;4990080;28;19917;-72
2022/10/07 02:50:21;;;;;;;;;;;;;;;9.30;99.03;102619.59;5003737;28;19917;-72
2022/10/07 02:52:47;;;;;;;;;;;;;;;9.27;98.75;102619.03;5007288;28;19922;-72
2022/10/07 02:55:15;;;;;;;;;;;;;;;9.42;98.40;102623.06;5007040;28;20293;-72
2022/10/07 02:57:42;;;;;;;;;;;;;;;9.46;98.00;102619.03;5007477;28;19948;-72
2022/10/07 03:00:08;;;;;;;;;;;;;;;9.44;98.08;102619.16;4991064;28;19925;-72
2022/10/07 03:02:36;;;;;;;;;;;;;;;9.41;98.03;102613.13;5007956;28;20439;-72
2022/10/07 03:05:02;;;;;;;;;;;;;;;9.40;98.24;102612.25;4989885;28;19932;-72
2022/10/07 03:07:27;;;;;;;;;;;;;;;9.33;98.31;102619.34;5008594;28;19922;-72
2022/10/07 03:09:53;;;;;;;;;;;;;;;9.36;98.47;102615.44;5007413;28;20299;-72
2022/10/07 03:12:18;;;;;;;;;;;;;;;9.40;97.98;102616.88;5007706;28;20011;-72
2022/10/07 03:14:43;;;;;;;;;;;;;;;9.32;97.78;102611.25;5006843;28;20602;-71
2022/10/07 03:17:09;;;;;;;;;;;;;;;9.32;97.93;102608.53;5007225;28;19987;-71
2022/10/07 03:19:34;;;;;;;;;;;;;;;9.35;98.14;102609.09;5005578;28;20583;-72
2022/10/07 03:21:59;;;;;;;;;;;;;;;9.34;98.33;102598.34;4988893;28;19928;-71
2022/10/07 03:24:25;;;;;;;;;;;;;;;9.29;98.24;102595.16;4989940;28;19922;-71
2022/10/07 03:26:50;;;;;;;;;;;;;;;9.23;98.65;102602.06;5009466;28;19924;-72
2022/10/07 03:29:16;;;;;;;;;;;;;;;9.22;98.61;102607.69;5005748;28;19988;-72
2022/10/07 03:31:41;;;;;;;;;;;;;;;9.32;98.10;102594.84;5009294;28;20023;-73
2022/10/07 03:34:07;;;;;;;;;;;;;;;9.37;98.27;102595.28;5008287;28;19917;-72
2022/10/07 03:36:32;;;;;;;;;;;;;;;9.33;98.63;102593.84;5007048;28;20015;-72
2022/10/07 03:38:57;;;;;;;;;;;;;;;9.33;98.46;102599.31;5008814;28;19957;-72
2022/10/07 03:41:23;;;;;;;;;;;;;;;9.34;98.34;102592.88;5007751;28;19924;-72
2022/10/07 03:43:48;;;;;;;;;;;;;;;9.26;97.83;102603.66;5006382;28;20365;-71
2022/10/07 03:46:13;;;;;;;;;;;;;;;9.34;98.25;102596.44;5011611;28;20344;-72
2022/10/07 03:48:39;;;;;;;;;;;;;;;9.23;98.52;102590.28;5009222;28;19918;-71
2022/10/07 03:51:04;;;;;;;;;;;;;;;9.25;98.03;102583.66;5008452;28;19925;-71
2022/10/07 03:53:29;;;;;;;;;;;;;;;9.13;98.50;102593.00;5008725;28;20012;-72
2022/10/07 03:55:55;;;;;;;;;;;;;;;9.17;98.93;102585.38;5012012;28;19964;-71
2022/10/07 03:58:21;;;;;;;;;;;;;;;9.15;98.50;102582.81;5009738;28;19985;-72
2022/10/07 04:00:46;;;;;;;;;;;;;;;9.20;98.23;102579.63;4994299;28;19924;-71
2022/10/07 04:03:12;;;;;;;;;;;;;;;9.20;98.61;102579.63;4990036;28;20008;-71
2022/10/07 04:05:38;;;;;;;;;;;;;;;9.18;98.38;102585.25;4992963;28;20387;-71
2022/10/07 04:08:06;;;;;;;;;;;;;;;9.13;98.56;102584.81;4991336;28;19917;-72
2022/10/07 04:10:31;;;;;;;;;;;;;;;9.11;98.88;102573.16;5011680;28;20303;-72
2022/10/07 04:12:56;;;;;;;;;;;;;;;9.27;98.32;102578.91;5009354;28;20024;-71
2022/10/07 04:15:22;;;;;;;;;;;;;;;9.31;98.03;102576.72;5010068;28;19921;-71
2022/10/07 04:17:47;;;;;;;;;;;;;;;9.19;97.75;102576.03;5011088;28;19917;-71
2022/10/07 04:20:14;;;;;;;;;;;;;;;9.15;98.51;102571.88;5010115;28;20048;-72
2022/10/07 04:22:39;;;;;;;;;;;;;;;9.18;97.96;102568.00;5006561;28;19971;-71
2022/10/07 04:27:49;;;;;;;;;;;;;;;9.18;97.94;102568.00;5002217;28;20439;-72
2022/10/07 04:30:14;;;;;;;;;;;;;;;9.24;98.23;102564.66;5002859;28;19921;-72
2022/10/07 04:32:40;;;;;;;;;;;;;;;9.29;98.15;102570.56;4991256;28;20355;-72
2022/10/07 04:35:05;;;;;;;;;;;;;;;9.25;98.18;102560.91;5010493;28;19940;-72
2022/10/07 04:37:30;;;;;;;;;;;;;;;9.25;97.92;102561.78;5005978;28;19926;-72
2022/10/07 04:39:55;;;;;;;;;;;;;;;9.22;98.04;102566.66;5003881;28;19913;-72
2022/10/07 04:45:05;;;;;;;;;;;;;;;9.31;97.80;102563.06;5007094;28;19920;-72
2022/10/07 04:47:30;;;;;;;;;;;;;;;9.30;97.57;102561.34;5010522;28;19917;-72
2022/10/07 04:49:55;;;;;;;;;;;;;;;9.27;97.60;102554.28;4990562;28;19924;-72
2022/10/07 04:52:20;;;;;;;;;;;;;;;9.30;97.45;102559.44;5007835;28;19925;-72
2022/10/07 04:54:46;;;;;;;;;;;;;;;9.31;97.40;102547.53;5008592;28;19918;-72
2022/10/07 04:57:12;;;;;;;;;;;;;;;9.33;97.19;102552.81;5007830;28;19975;-72
2022/10/07 04:59:37;;;;;;;;;;;;;;;9.37;97.20;102551.53;5010309;28;20383;-72
2022/10/07 05:02:03;;;;;;;;;;;;;;;9.41;97.23;102547.50;5006607;28;19917;-72
2022/10/07 05:04:28;;;;;;;;;;;;;;;9.37;97.45;102544.19;5006148;28;20339;-72
2022/10/07 05:06:54;;;;;;;;;;;;;;;9.42;97.16;102538.28;5008070;28;19917;-72
2022/10/07 05:09:19;;;;;;;;;;;;;;;9.45;96.80;102544.31;4992421;28;19921;-72
2022/10/07 05:11:44;;;;;;;;;;;;;;;9.42;97.00;102544.63;4993216;28;19922;-72
2022/10/07 05:14:09;;;;;;;;;;;;;;;9.45;97.27;102540.72;5007012;28;20364;-72
2022/10/07 05:16:35;;;;;;;;;;;;;;;9.38;97.53;102548.66;5007880;28;19917;-72
2022/10/07 05:19:00;;;;;;;;;;;;;;;9.45;97.42;102543.47;5009464;28;20382;-72
2022/10/07 05:21:25;;;;;;;;;;;;;;;9.48;97.35;102540.41;5004043;28;19933;-72
2022/10/07 05:23:50;;;;;;;;;;;;;;;9.52;97.03;102547.31;5006737;28;19929;-72
2022/10/07 05:26:15;;;;;;;;;;;;;;;9.62;96.70;102535.31;4986006;28;19917;-72
2022/10/07 05:28:42;;;;;;;;;;;;;;;9.72;96.26;102535.28;4986002;28;20060;-73
2022/10/07 05:31:12;;;;;;;;;;;;;;;9.65;96.38;102534.16;4990723;28;19923;-73
2022/10/07 05:33:37;;;;;;;;;;;;;;;9.65;96.16;102537.75;5009893;28;19928;-73
2022/10/07 05:36:03;;;;;;;;;;;;;;;9.70;95.88;102526.34;5010008;28;19917;-72
2022/10/07 05:38:28;;;;;;;;;;;;;;;9.76;95.97;102531.25;5009088;28;19940;-73
2022/10/07 05:40:54;;;;;;;;;;;;;;;9.74;95.83;102516.84;5010580;28;19913;-72
2022/10/07 05:43:20;;;;;;;;;;;;;;;9.82;95.47;102506.84;5007331;28;20319;-72
2022/10/07 05:45:46;;;;;;;;;;;;;;;9.75;95.70;102518.56;4992887;28;19917;-72
2022/10/07 05:48:11;;;;;;;;;;;;;;;9.67;95.95;102515.72;5009683;28;20387;-72
2022/10/07 05:50:38;;;;;;;;;;;;;;;9.58;96.28;102509.28;5009864;28;19924;-72
2022/10/07 05:53:03;;;;;;;;;;;;;;;9.62;96.11;102510.69;4989795;28;20003;-71
2022/10/07 05:55:29;;;;;;;;;;;;;;;9.73;95.81;102512.38;5013298;28;19925;-72
2022/10/07 05:57:54;;;;;;;;;;;;;;;9.68;96.00;102507.38;5010677;28;19964;-72
2022/10/07 06:00:19;;;;;;;;;;;;;;;9.73;96.07;102507.78;5010335;28;19913;-72
2022/10/07 06:02:45;;;;;;;;;;;;;;;9.84;95.65;102501.25;5007788;28;21701;-72
2022/10/07 06:05:10;;;;;;;;;;;;;;;9.97;95.37;102507.19;5008551;28;19996;-72
2022/10/07 06:07:35;;;;;;;;;;;;;;;9.92;95.33;102506.84;5005943;28;20426;-72
2022/10/07 06:13:07;;;;;;;;;;;;;;;10.03;94.82;102509.34;4964208;28;19925;-72
2022/10/07 06:15:32;;;;;;;;;;;;;;;10.05;94.58;102501.88;5001338;28;20004;-72
2022/10/07 06:17:58;;;;;;;;;;;;;;;10.10;94.72;102502.28;5006956;28;20012;-72
2022/10/07 06:20:23;;;;;;;;;;;;;;;10.09;94.36;102506.03;5004281;28;19948;-72
2022/10/07 06:22:48;;;;;;;;;;;;;;;10.09;94.71;102506.03;5010415;28;20328;-73
2022/10/07 06:25:13;;;;;;;;;;;;;;;10.11;94.75;102509.47;4992295;28;19939;-72
2022/10/07 06:27:38;;;;;;;;;;;;;;;10.22;93.96;102501.03;5010344;28;20360;-73
2022/10/07 06:30:04;;;;;;;;;;;;;;;10.21;94.59;102505.66;5010068;28;19960;-72
2022/10/07 06:32:31;;;;;;;;;;;;;;;10.31;94.39;102494.63;5010292;28;19987;-72
2022/10/07 06:34:56;;;;;;;;;;;;;;;10.37;93.92;102494.88;5007242;28;19918;-72
2022/10/07 06:37:21;;;;;;;;;;;;;;;10.32;94.34;102493.63;4991958;28;20383;-72
2022/10/07 06:39:47;;;;;;;;;;;;;;;10.30;94.04;102487.44;5010423;28;19924;-72
2022/10/07 06:42:12;;;;;;;;;;;;;;;10.34;94.23;102488.84;5010056;28;19921;-72
2022/10/07 06:44:37;;;;;;;;;;;;;;;10.29;94.47;102485.69;5007583;28;19929;-72
2022/10/07 06:47:02;;;;;;;;;;;;;;;10.37;93.88;102496.75;4992370;28;19917;-72
2022/10/07 06:49:27;;;;;;;;;;;;;;;10.38;94.24;102496.59;5010125;28;19976;-72
2022/10/07 06:51:53;;;;;;;;;;;;;;;10.42;94.24;102491.66;5009505;28;20008;-72
2022/10/07 06:54:18;;;;;;;;;;;;;;;10.45;93.90;102491.34;4991203;28;20357;-72
2022/10/07 06:56:43;;;;;;;;;;;;;;;10.53;94.04;102495.03;4992482;28;19924;-72
2022/10/07 06:59:08;;;;;;;;;;;;;;;10.62;92.75;102498.72;5008378;28;19928;-72
2022/10/07 07:01:34;;;;;;;;;;;;;;;10.63;92.73;102494.97;5009647;28;19918;-73
2022/10/07 07:03:59;;;;;;;;;;;;;;;10.67;92.44;102497.22;5008152;28;20284;-72
2022/10/07 07:06:24;;;;;;;;;;;;;;;10.62;93.17;102499.56;5011575;28;19917;-72
2022/10/07 07:08:49;;;;;;;;;;;;;;;10.79;92.31;102500.59;5012992;28;19924;-73
2022/10/07 07:14:00;;;;;;;;;;;;;;;11.02;91.87;102501.78;5012503;28;19945;-72
2022/10/07 07:16:25;;;;;;;;;;;;;;;11.10;91.45;102499.97;4995757;28;20006;-73
2022/10/07 07:18:54;;;;;;;;;;;;;;;11.12;90.98;102494.31;4994820;28;19947;-72
2022/10/07 07:21:20;;;;;;;;;;;;;;;11.15;90.67;102491.28;4995640;28;19924;-72
2022/10/07 07:23:45;;;;;;;;;;;;;;;11.17;91.34;102492.84;4994409;28;20020;-71
2022/10/07 07:26:11;;;;;;;;;;;;;;;11.24;90.52;102490.28;5012430;28;20012;-71
2022/10/07 07:28:36;;;;;;;;;;;;;;;11.31;90.18;102502.34;5007897;28;20091;-72
2022/10/07 07:31:09;;;;;;;;;;;;;;;11.35;89.86;102501.88;5003137;28;19964;-71
2022/10/07 07:33:37;;;;;;;;;;;;;;;11.44;89.25;102491.78;4994482;28;20032;-72
2022/10/07 07:36:07;;;;;;;;;;;;;;;11.44;89.16;102481.69;4993932;28;19917;-72
2022/10/07 07:38:32;;;;;;;;;;;;;;;11.26;89.86;102488.25;5013094;28;20372;-72
2022/10/07 07:41:02;;;;;;;;;;;;;;;11.26;89.69;102491.00;5010649;28;19917;-72
2022/10/07 07:43:28;;;;;;;;;;;;;;;11.42;89.90;102485.63;5012361;28;19921;-72
2022/10/07 07:45:56;;;;;;;;;;;;;;;11.66;88.35;102485.75;5007141;28;19968;-72
2022/10/07 07:48:21;;;;;;;;;;;;;;;11.91;87.75;102484.84;5008790;28;19949;-72
2022/10/07 07:50:46;;;;;;;;;;;;;;;12.07;86.87;102480.25;5005644;28;20269;-72
2022/10/07 07:53:12;;;;;;;;;;;;;;;12.15;86.69;102484.91;5005528;28;19917;-72
2022/10/07 07:55:37;;;;;;;;;;;;;;;12.19;86.45;102486.31;5012876;28;19924;-72
2022/10/07 07:58:02;;;;;;;;;;;;;;;12.25;85.84;102478.28;5011955;28;19971;-72
2022/10/07 08:00:27;;;;;;;;;;;;;;;12.27;85.97;102478.94;5012929;28;19917;-72
2022/10/07 08:02:52;;;;;;;;;;;;;;;12.35;85.64;102478.97;5010817;28;19975;-72
2022/10/07 08:05:19;;;;;;;;;;;;;;;12.43;85.37;102483.63;5011722;28;19924;-72
2022/10/07 08:07:44;;;;;;;;;;;;;;;12.45;84.57;102476.94;5012974;28;19980;-72
2022/10/07 08:10:09;;;;;;;;;;;;;;;12.53;84.64;102474.19;5011251;28;20031;-71
2022/10/07 08:12:34;;;;;;;;;;;;;;;12.54;84.14;102475.06;4993549;28;19917;-72
2022/10/07 08:14:59;;;;;;;;;;;;;;;12.56;84.60;102473.84;5011734;28;20051;-72
2022/10/07 08:17:24;;;;;;;;;;;;;;;12.62;84.08;102472.28;5011987;28;19939;-73
2022/10/07 08:19:50;;;;;;;;;;;;;;;12.59;84.18;102478.16;5012616;28;20382;-73
2022/10/07 08:22:16;;;;;;;;;;;;;;;12.54;84.56;102477.81;4992561;28;20409;-73
2022/10/07 08:24:41;;;;;;;;;;;;;;;12.59;83.87;102479.00;5011417;28;20028;-72
2022/10/07 08:27:07;;;;;;;;;;;;;;;12.58;84.61;102473.66;5012372;28;19923;-73
2022/10/07 08:29:32;;;;;;;;;;;;;;;12.69;84.69;102465.06;5009217;28;19929;-72
2022/10/07 08:31:57;;;;;;;;;;;;;;;12.76;84.32;102460.63;5003945;28;19918;-72
2022/10/07 08:34:22;;;;;;;;;;;;;;;12.79;84.19;102465.75;5002478;28;19940;-72
2022/10/07 08:36:49;;;;;;;;;;;;;;;12.86;84.25;102462.16;4989465;28;19924;-73
2022/10/07 08:39:14;;;;;;;;;;;;;;;12.98;84.40;102454.47;5004273;28;19924;-72
2022/10/07 08:41:39;;;;;;;;;;;;;;;13.09;83.58;102451.34;5001610;28;20365;-72
2022/10/07 08:44:17;;;;;;;;;;;;;;;13.25;83.46;102446.69;5004449;28;19917;-72
2022/10/07 08:46:51;;;;;;;;;;;;;;;13.40;82.31;102455.06;5012010;28;20356;-72
2022/10/07 08:49:19;;;;;;;;;;;;;;;13.43;81.92;102454.69;5006579;28;19921;-72
2022/10/07 08:51:47;;;;;;;;;;;;;;;13.57;81.98;102454.84;5010831;28;19917;-72
2022/10/07 08:54:13;;;;;;;;;;;;;;;13.64;81.83;102443.94;4988320;28;21802;-73
2022/10/07 08:56:38;;;;;;;;;;;;;;;13.73;81.53;102451.16;5010733;28;21274;-73
2022/10/07 08:59:14;;;;;;;;;;;;;;;13.84;81.46;102436.97;5009691;28;20153;-72
2022/10/07 09:01:45;;;;;;;;;;;;;;;13.89;81.68;102438.19;5008166;28;19918;-71
2022/10/07 09:04:37;;;;;;;;;;;;;;;13.94;80.83;102437.63;5007377;28;22337;-72
2022/10/07 09:07:11;;;;;;;;;;;;;;;13.96;81.00;102428.16;5007039;28;19921;-72
2022/10/07 09:09:37;;;;;;;;;;;;;;;14.02;81.04;102429.31;5002707;28;19917;-73
2022/10/07 09:12:04;;;;;;;;;;;;;;;14.16;80.25;102425.78;5003027;28;19940;-71
2022/10/07 09:14:36;;;;;;;;;;;;;;;14.27;80.36;102425.41;5008420;28;20404;-72
2022/10/07 09:17:05;;;;;;;;;;;;;;;14.39;80.82;102426.69;4996518;28;19925;-72
2022/10/07 09:19:32;;;;;;;;;;;;;;;14.49;79.58;102421.78;5007303;28;20340;-72
2022/10/07 09:22:04;;;;;;;;;;;;;;;14.55;79.05;102415.53;5007343;28;20360;-72
2022/10/07 09:24:29;;;;;;;;;;;;;;;14.54;78.42;102409.16;5001688;28;20385;-71
2022/10/07 09:26:59;;;;;;;;;;;;;;;14.64;78.16;102409.78;5005668;28;20004;-72
2022/10/07 09:29:26;;;;;;;;;;;;;;;14.69;78.14;102409.22;5002991;28;20012;-72
2022/10/07 09:31:52;;;;;;;;;;;;;;;14.89;77.33;102414.00;5005272;28;20104;-72
2022/10/07 09:34:22;;;;;;;;;;;;;;;15.16;76.51;102421.66;5000996;28;19917;-72
2022/10/07 09:37:06;;;;;;;;;;;;;;;15.37;75.85;102413.53;5004088;28;19939;-72
2022/10/07 09:39:31;;;;;;;;;;;;;;;15.66;75.31;102423.72;5002595;28;19929;-72
2022/10/07 09:41:56;;;;;;;;;;;;;;;15.73;73.90;102419.13;4984111;28;19917;-72
2022/10/07 09:44:26;;;;;;;;;;;;;;;15.90;74.14;102427.00;5004008;28;19963;-72
2022/10/07 09:46:53;;;;;;;;;;;;;;;15.92;73.18;102418.53;5003671;28;20392;-72
2022/10/07 09:49:28;;;;;;;;;;;;;;;15.99;72.83;102416.69;5004198;28;20024;-72
2022/10/07 09:52:00;;;;;;;;;;;;;;;16.20;72.09;102411.19;5005111;28;19917;-72
2022/10/07 09:54:26;;;;;;;;;;;;;;;16.20;71.37;102409.31;5003112;28;20193;-72
2022/10/07 09:56:56;;;;;;;;;;;;;;;16.29;71.70;102401.72;5003259;28;19925;-72
2022/10/07 09:59:32;;;;;;;;;;;;;;;16.49;71.64;102397.31;5003253;28;20861;-72
2022/10/07 10:02:19;;;;;;;;;;;;;;;16.53;69.78;102401.34;5004086;28;20008;-71
2022/10/07 10:04:49;;;;;;;;;;;;;;;16.53;69.44;102396.69;5001576;28;19917;-72
2022/10/07 10:07:25;;;;;;;;;;;;;;;16.79;69.26;102399.72;5005341;28;20218;-72
2022/10/07 10:09:51;;;;;;;;;;;;;;;16.79;68.10;102394.16;4989998;28;20288;-72
2022/10/07 10:12:17;;;;;;;;;;;;;;;16.84;67.94;102386.13;4988086;28;19925;-72
2022/10/07 10:14:57;;;;;;;;;;;;;;;16.98;67.78;102382.38;5007615;28;20397;-72
2022/10/07 10:17:34;;;;;;;;;;;;;;;16.98;67.75;102381.53;4996644;28;19925;-72
2022/10/07 10:20:18;;;;;;;;;;;;;;;17.15;66.88;102380.16;5005207;28;19925;-72
2022/10/07 10:22:43;;;;;;;;;;;;;;;17.10;67.02;102369.72;5002773;28;19917;-73
2022/10/07 10:28:08;;;;;;;;;;;;;;;17.16;66.80;102356.94;5002940;28;20328;-72
2022/10/07 10:30:38;;;;;;;;;;;;;;;17.25;67.00;102364.03;5003881;28;19957;-71
2022/10/07 10:33:20;;;;;;;;;;;;;;;17.30;66.45;102350.44;4987724;28;20020;-72
2022/10/07 10:35:45;;;;;;;;;;;;;;;17.26;66.21;102349.13;5003398;28;19927;-71
2022/10/07 10:38:11;;;;;;;;;;;;;;;17.22;65.18;102347.81;5003678;28;20015;-72
2022/10/07 10:40:38;;;;;;;;;;;;;;;16.94;65.65;102341.47;4988124;28;20297;-71
2022/10/07 10:43:16;;;;;;;;;;;;;;;17.03;67.11;102340.25;4998736;28;19921;-72
2022/10/07 10:45:59;;;;;;;;;;;;;;;17.00;66.45;102343.41;5009165;28;20462;-72
2022/10/07 10:48:40;;;;;;;;;;;;;;;17.15;66.41;102339.50;4989693;28;20312;-72
2022/10/07 10:51:33;;;;;;;;;;;;;;;17.35;66.07;102325.75;5007414;28;20440;-71
2022/10/07 10:53:58;;;;;;;;;;;;;;;17.42;64.39;102327.53;4988371;28;19917;-71
2022/10/07 10:56:23;;;;;;;;;;;;;;;17.58;64.89;102329.09;5006572;28;20296;-71
2022/10/07 10:59:07;;;;;;;;;;;;;;;17.96;63.92;102325.59;4991841;28;19963;-71
2022/10/07 11:01:37;;;;;;;;;;;;;;;18.07;64.05;102318.56;5008009;28;20368;-71
2022/10/07 11:04:03;;;;;;;;;;;;;;;18.23;62.84;102312.63;5009545;28;19928;-71
2022/10/07 11:06:31;;;;;;;;;;;;;;;18.62;62.86;102321.00;4989072;28;19917;-71
2022/10/07 11:08:57;;;;;;;;;;;;;;;19.07;60.74;102306.19;5006698;28;20307;-70
2022/10/07 11:11:22;;;;;;;;;;;;;;;19.18;59.90;102308.31;5008679;28;20344;-71
2022/10/07 11:13:53;;;;;;;;;;;;;;;19.15;59.48;102298.47;5009662;28;19924;-70
2022/10/07 11:16:18;;;;;;;;;;;;;;;18.80;59.62;102304.53;4992245;28;19975;-71
2022/10/07 11:18:48;;;;;;;;;;;;;;;18.89;58.70;102290.22;5009228;28;19926;-70
2022/10/07 11:21:31;;;;;;;;;;;;;;;18.58;59.00;102291.97;5009711;28;19925;-71
2022/10/07 11:24:02;;;;;;;;;;;;;;;18.70;59.47;102288.34;5005844;28;19925;-71
2022/10/07 11:26:40;;;;;;;;;;;;;;;18.70;59.88;102295.78;4991704;28;19921;-71
2022/10/07 11:29:24;;;;;;;;;;;;;;;18.71;58.91;102292.81;5008979;28;19925;-70
2022/10/07 11:31:54;;;;;;;;;;;;;;;18.77;59.38;102266.09;4992020;28;19917;-71
2022/10/07 11:34:37;;;;;;;;;;;;;;;18.93;59.21;102273.97;5007247;28;19921;-71
2022/10/07 11:37:23;;;;;;;;;;;;;;;18.72;60.09;102265.91;5008472;28;20008;-71
2022/10/07 11:39:48;;;;;;;;;;;;;;;18.49;60.48;102268.28;5000656;28;20400;-71
2022/10/07 11:42:39;;;;;;;;;;;;;;;18.28;60.93;102269.31;5007746;28;19968;-71
2022/10/07 11:45:04;;;;;;;;;;;;;;;18.46;62.31;102266.78;4991166;28;19922;-72
2022/10/07 11:47:33;;;;;;;;;;;;;;;18.25;61.21;102257.78;5005073;28;19963;-72
2022/10/07 11:50:06;;;;;;;;;;;;;;;18.23;61.26;102244.13;5005395;28;19968;-72
2022/10/07 11:52:33;;;;;;;;;;;;;;;18.45;62.57;102247.56;5002148;28;19933;-72
2022/10/07 11:55:04;;;;;;;;;;;;;;;18.41;62.04;102244.34;5005110;28;19917;-72
2022/10/07 11:57:31;;;;;;;;;;;;;;;18.40;62.26;102239.88;5000694;28;19924;-72
2022/10/07 12:00:03;;;;;;;;;;;;;;;18.39;62.52;102229.84;4991552;28;19988;-72
2022/10/07 12:02:28;;;;;;;;;;;;;;;18.53;62.86;102239.88;5008561;28;19922;-71
2022/10/07 12:04:56;;;;;;;;;;;;;;;18.48;62.60;102223.03;5006863;28;20330;-72
2022/10/07 12:07:31;;;;;;;;;;;;;;;18.40;62.04;102230.72;4986586;28;19922;-71
2022/10/07 12:10:02;;;;;;;;;;;;;;;18.39;61.58;102220.66;5001968;28;19921;-71
2022/10/07 12:12:48;;;;;;;;;;;;;;;18.32;62.01;102225.38;5008488;28;20008;-72
2022/10/07 12:15:22;;;;;;;;;;;;;;;18.37;62.23;102218.13;5007300;28;19917;-72
2022/10/07 12:18:17;;;;;;;;;;;;;;;18.35;61.07;102213.88;5006247;28;19917;-72
2022/10/07 12:20:45;;;;;;;;;;;;;;;18.49;61.08;102207.22;5004782;28;19932;-70
2022/10/07 12:23:25;;;;;;;;;;;;;;;18.42;60.73;102195.28;5007013;28;20284;-71
2022/10/07 12:25:50;;;;;;;;;;;;;;;18.35;60.80;102200.00;5002822;28;19976;-71
2022/10/07 12:28:18;;;;;;;;;;;;;;;18.44;61.06;102185.66;5006702;28;19968;-71
2022/10/07 12:30:56;;;;;;;;;;;;;;;18.53;60.91;102184.38;5004453;28;20244;-71
2022/10/07 12:33:33;;;;;;;;;;;;;;;18.45;60.99;102176.25;5002507;28;20035;-71
2022/10/07 12:36:20;;;;;;;;;;;;;;;18.79;61.00;102175.13;5006622;28;19917;-72
2022/10/07 12:39:06;;;;;;;;;;;;;;;18.96;58.92;102168.88;4983717;28;19925;-72
2022/10/07 12:41:35;;;;;;;;;;;;;;;18.98;58.63;102166.72;5002181;28;19981;-70
2022/10/07 12:44:05;;;;;;;;;;;;;;;19.11;58.25;102163.84;5003220;28;20231;-71
2022/10/07 12:46:37;;;;;;;;;;;;;;;19.57;58.64;102156.16;5002432;28;19922;-70
2022/10/07 12:49:12;;;;;;;;;;;;;;;19.44;58.47;102155.38;4987839;28;20016;-71
2022/10/07 12:51:39;;;;;;;;;;;;;;;19.41;57.44;102147.47;5004614;28;20008;-71
2022/10/07 12:54:19;;;;;;;;;;;;;;;19.53;57.84;102149.31;4986155;28;19972;-71
2022/10/07 12:56:45;;;;;;;;;;;;;;;19.48;57.66;102145.53;5001715;28;19924;-71
2022/10/07 13:02:21;;;;;;;;;;;;;;;19.77;56.67;102142.09;5004406;28;19924;-71
2022/10/07 13:04:46;;;;;;;;;;;;;;;19.64;56.58;102142.22;5002357;28;19917;-71
2022/10/07 13:07:14;;;;;;;;;;;;;;;19.79;57.38;102126.88;5006808;28;19921;-71